sensor_id;sensor_type;location;lat;lon;timestamp;P1;durP1;ratioP1;P2;durP2;ratioP2
51296;SDS011;37380;45.186;9.792;2023-11-18T00:00:01;2.72;;;2.08;;
51296;SDS011;37380;45.186;9.792;2023-11-18T00:02:38;1.48;;;1.33;;
51296;SDS011;37380;45.186;9.792;2023-11-18T00:05:05;2.53;;;2.00;;
51296;SDS011;37380;45.186;9.792;2023-11-18T00:07:34;1.50;;;1.33;;
51296;SDS011;37380;45.186;9.792;2023-11-18T00:10:01;1.60;;;1.33;;
51296;SDS011;37380;45.186;9.792;2023-11-18T00:12:29;2.30;;;2.03;;
51296;SDS011;37380;45.186;9.792;2023-11-18T00:15:05;3.67;;;2.08;;
51296;SDS011;37380;45.186;9.792;2023-11-18T00:17:59;2.15;;;1.75;;
51296;SDS011;37380;45.186;9.792;2023-11-18T00:20:27;5.70;;;1.70;;
51296;SDS011;37380;45.186;9.792;2023-11-18T00:22:54;4.93;;;1.75;;
51296;SDS011;37380;45.186;9.792;2023-11-18T00:25:22;5.35;;;2.72;;
51296;SDS011;37380;45.186;9.792;2023-11-18T00:27:55;1.73;;;1.63;;
51296;SDS011;37380;45.186;9.792;2023-11-18T00:30:56;1.67;;;1.40;;
51296;SDS011;37380;45.186;9.792;2023-11-18T00:33:58;1.30;;;1.20;;
51296;SDS011;37380;45.186;9.792;2023-11-18T00:36:52;3.70;;;1.40;;
51296;SDS011;37380;45.186;9.792;2023-11-18T00:39:19;2.53;;;1.63;;
51296;SDS011;37380;45.186;9.792;2023-11-18T00:41:53;0.95;;;0.93;;
51296;SDS011;37380;45.186;9.792;2023-11-18T00:44:54;1.58;;;1.45;;
51296;SDS011;37380;45.186;9.792;2023-11-18T00:47:55;1.35;;;1.25;;
51296;SDS011;37380;45.186;9.792;2023-11-18T00:50:57;1.50;;;1.40;;
51296;SDS011;37380;45.186;9.792;2023-11-18T00:53:58;3.33;;;2.78;;
51296;SDS011;37380;45.186;9.792;2023-11-18T00:56:56;1.75;;;1.25;;
51296;SDS011;37380;45.186;9.792;2023-11-18T00:59:25;2.67;;;1.38;;
51296;SDS011;37380;45.186;9.792;2023-11-18T01:01:54;2.25;;;1.30;;
51296;SDS011;37380;45.186;9.792;2023-11-18T01:04:21;2.28;;;1.10;;
51296;SDS011;37380;45.186;9.792;2023-11-18T01:06:48;1.10;;;1.00;;
51296;SDS011;37380;45.186;9.792;2023-11-18T01:09:18;1.38;;;0.88;;
51296;SDS011;37380;45.186;9.792;2023-11-18T01:11:45;2.60;;;1.40;;
51296;SDS011;37380;45.186;9.792;2023-11-18T01:14:32;1.73;;;1.00;;
51296;SDS011;37380;45.186;9.792;2023-11-18T01:17:01;0.95;;;0.70;;
51296;SDS011;37380;45.186;9.792;2023-11-18T01:19:29;1.65;;;1.30;;
51296;SDS011;37380;45.186;9.792;2023-11-18T01:21:56;1.23;;;1.13;;
51296;SDS011;37380;45.186;9.792;2023-11-18T01:24:23;0.77;;;0.77;;
51296;SDS011;37380;45.186;9.792;2023-11-18T01:26:50;2.00;;;1.35;;
51296;SDS011;37380;45.186;9.792;2023-11-18T01:29:24;1.27;;;1.05;;
51296;SDS011;37380;45.186;9.792;2023-11-18T01:32:26;1.20;;;1.00;;
51296;SDS011;37380;45.186;9.792;2023-11-18T01:35:21;0.73;;;0.73;;
51296;SDS011;37380;45.186;9.792;2023-11-18T01:37:53;2.38;;;0.80;;
51296;SDS011;37380;45.186;9.792;2023-11-18T01:40:25;1.10;;;1.00;;
51296;SDS011;37380;45.186;9.792;2023-11-18T01:43:00;1.10;;;1.00;;
51296;SDS011;37380;45.186;9.792;2023-11-18T01:46:04;1.25;;;1.17;;
51296;SDS011;37380;45.186;9.792;2023-11-18T01:49:08;0.85;;;0.85;;
51296;SDS011;37380;45.186;9.792;2023-11-18T01:52:04;0.95;;;0.80;;
51296;SDS011;37380;45.186;9.792;2023-11-18T01:54:34;2.35;;;1.20;;
51296;SDS011;37380;45.186;9.792;2023-11-18T01:57:04;0.70;;;0.70;;
51296;SDS011;37380;45.186;9.792;2023-11-18T01:59:36;1.70;;;1.17;;
51296;SDS011;37380;45.186;9.792;2023-11-18T02:02:14;2.55;;;1.23;;
51296;SDS011;37380;45.186;9.792;2023-11-18T02:05:15;0.98;;;0.98;;
51296;SDS011;37380;45.186;9.792;2023-11-18T02:08:09;0.77;;;0.77;;
51296;SDS011;37380;45.186;9.792;2023-11-18T02:13:23;2.15;;;1.33;;
51296;SDS011;37380;45.186;9.792;2023-11-18T02:15:54;1.30;;;1.08;;
51296;SDS011;37380;45.186;9.792;2023-11-18T02:18:26;2.80;;;1.30;;
51296;SDS011;37380;45.186;9.792;2023-11-18T02:20:59;1.17;;;1.08;;
51296;SDS011;37380;45.186;9.792;2023-11-18T02:23:26;1.40;;;1.30;;
51296;SDS011;37380;45.186;9.792;2023-11-18T02:25:54;2.63;;;1.10;;
51296;SDS011;37380;45.186;9.792;2023-11-18T02:28:31;2.17;;;1.00;;
51296;SDS011;37380;45.186;9.792;2023-11-18T02:31:33;1.27;;;1.17;;
51296;SDS011;37380;45.186;9.792;2023-11-18T02:34:28;5.00;;;1.60;;
51296;SDS011;37380;45.186;9.792;2023-11-18T02:36:58;3.95;;;1.27;;
51296;SDS011;37380;45.186;9.792;2023-11-18T02:39:32;1.20;;;1.10;;
51296;SDS011;37380;45.186;9.792;2023-11-18T02:42:08;16.13;;;1.63;;
51296;SDS011;37380;45.186;9.792;2023-11-18T02:44:37;1.65;;;1.40;;
51296;SDS011;37380;45.186;9.792;2023-11-18T02:47:12;1.88;;;1.25;;
51296;SDS011;37380;45.186;9.792;2023-11-18T02:50:09;1.67;;;0.82;;
51296;SDS011;37380;45.186;9.792;2023-11-18T02:52:46;3.72;;;1.15;;
51296;SDS011;37380;45.186;9.792;2023-11-18T02:55:13;1.30;;;1.02;;
51296;SDS011;37380;45.186;9.792;2023-11-18T02:57:41;2.67;;;1.13;;
51296;SDS011;37380;45.186;9.792;2023-11-18T03:00:09;1.42;;;1.20;;
51296;SDS011;37380;45.186;9.792;2023-11-18T03:02:44;1.30;;;1.20;;
51296;SDS011;37380;45.186;9.792;2023-11-18T03:05:14;2.72;;;0.90;;
51296;SDS011;37380;45.186;9.792;2023-11-18T03:07:42;3.15;;;1.25;;
51296;SDS011;37380;45.186;9.792;2023-11-18T03:10:12;1.38;;;1.25;;
51296;SDS011;37380;45.186;9.792;2023-11-18T03:12:48;1.38;;;0.60;;
51296;SDS011;37380;45.186;9.792;2023-11-18T03:15:23;1.35;;;0.85;;
51296;SDS011;37380;45.186;9.792;2023-11-18T03:18:24;1.42;;;1.17;;
51296;SDS011;37380;45.186;9.792;2023-11-18T03:20:54;1.58;;;1.48;;
51296;SDS011;37380;45.186;9.792;2023-11-18T03:23:22;1.23;;;1.13;;
51296;SDS011;37380;45.186;9.792;2023-11-18T03:25:50;0.77;;;0.75;;
51296;SDS011;37380;45.186;9.792;2023-11-18T03:28:25;1.73;;;1.25;;
51296;SDS011;37380;45.186;9.792;2023-11-18T03:31:26;0.93;;;0.80;;
51296;SDS011;37380;45.186;9.792;2023-11-18T03:34:27;1.17;;;1.08;;
51296;SDS011;37380;45.186;9.792;2023-11-18T03:37:28;1.73;;;1.40;;
51296;SDS011;37380;45.186;9.792;2023-11-18T03:40:30;0.70;;;0.70;;
51296;SDS011;37380;45.186;9.792;2023-11-18T03:43:24;1.75;;;1.10;;
51296;SDS011;37380;45.186;9.792;2023-11-18T03:45:58;1.65;;;1.00;;
51296;SDS011;37380;45.186;9.792;2023-11-18T03:48:59;0.65;;;0.65;;
51296;SDS011;37380;45.186;9.792;2023-11-18T03:52:01;1.85;;;0.98;;
51296;SDS011;37380;45.186;9.792;2023-11-18T03:54:56;7.25;;;1.60;;
51296;SDS011;37380;45.186;9.792;2023-11-18T03:57:44;1.75;;;0.80;;
51296;SDS011;37380;45.186;9.792;2023-11-18T04:00:15;1.05;;;0.93;;
51296;SDS011;37380;45.186;9.792;2023-11-18T04:02:49;1.05;;;0.90;;
51296;SDS011;37380;45.186;9.792;2023-11-18T04:05:50;1.45;;;1.10;;
51296;SDS011;37380;45.186;9.792;2023-11-18T04:08:45;1.40;;;1.30;;
51296;SDS011;37380;45.186;9.792;2023-11-18T04:11:13;0.90;;;0.90;;
51296;SDS011;37380;45.186;9.792;2023-11-18T04:13:41;1.42;;;1.00;;
51296;SDS011;37380;45.186;9.792;2023-11-18T04:16:14;1.27;;;1.17;;
51296;SDS011;37380;45.186;9.792;2023-11-18T04:18:42;5.00;;;0.82;;
51296;SDS011;37380;45.186;9.792;2023-11-18T04:21:12;1.60;;;1.05;;
51296;SDS011;37380;45.186;9.792;2023-11-18T04:23:41;1.73;;;0.88;;
51296;SDS011;37380;45.186;9.792;2023-11-18T04:26:09;0.80;;;0.77;;
51296;SDS011;37380;45.186;9.792;2023-11-18T04:28:44;0.93;;;0.93;;
51296;SDS011;37380;45.186;9.792;2023-11-18T04:31:45;10.18;;;1.15;;
51296;SDS011;37380;45.186;9.792;2023-11-18T04:34:39;0.90;;;0.70;;
51296;SDS011;37380;45.186;9.792;2023-11-18T04:37:09;2.15;;;1.10;;
51296;SDS011;37380;45.186;9.792;2023-11-18T04:39:36;1.10;;;0.90;;
51296;SDS011;37380;45.186;9.792;2023-11-18T04:42:04;1.38;;;1.10;;
51296;SDS011;37380;45.186;9.792;2023-11-18T04:44:31;3.10;;;1.23;;
51296;SDS011;37380;45.186;9.792;2023-11-18T04:47:04;7.45;;;1.42;;
51296;SDS011;37380;45.186;9.792;2023-11-18T04:50:06;0.85;;;0.85;;
51296;SDS011;37380;45.186;9.792;2023-11-18T04:52:47;6.53;;;1.42;;
51296;SDS011;37380;45.186;9.792;2023-11-18T04:55:14;2.53;;;1.15;;
51296;SDS011;37380;45.186;9.792;2023-11-18T04:57:42;4.88;;;1.48;;
51296;SDS011;37380;45.186;9.792;2023-11-18T05:00:10;1.10;;;1.00;;
51296;SDS011;37380;45.186;9.792;2023-11-18T05:02:39;1.25;;;1.00;;
51296;SDS011;37380;45.186;9.792;2023-11-18T05:05:06;1.67;;;1.30;;
51296;SDS011;37380;45.186;9.792;2023-11-18T05:07:34;2.35;;;1.10;;
51296;SDS011;37380;45.186;9.792;2023-11-18T05:10:02;2.83;;;2.13;;
51296;SDS011;37380;45.186;9.792;2023-11-18T05:12:32;2.55;;;2.03;;
51296;SDS011;37380;45.186;9.792;2023-11-18T05:14:59;2.63;;;2.08;;
51296;SDS011;37380;45.186;9.792;2023-11-18T05:17:28;3.13;;;1.75;;
51296;SDS011;37380;45.186;9.792;2023-11-18T05:19:57;3.22;;;1.40;;
51296;SDS011;37380;45.186;9.792;2023-11-18T05:22:24;2.28;;;1.65;;
51296;SDS011;37380;45.186;9.792;2023-11-18T05:24:51;1.63;;;1.40;;
51296;SDS011;37380;45.186;9.792;2023-11-18T05:27:20;3.60;;;1.30;;
51296;SDS011;37380;45.186;9.792;2023-11-18T05:29:54;1.48;;;1.35;;
51296;SDS011;37380;45.186;9.792;2023-11-18T05:32:55;2.53;;;1.90;;
51296;SDS011;37380;45.186;9.792;2023-11-18T05:35:57;15.00;;;2.42;;
51296;SDS011;37380;45.186;9.792;2023-11-18T05:38:54;6.22;;;1.65;;
51296;SDS011;37380;45.186;9.792;2023-11-18T05:41:21;5.57;;;1.85;;
51296;SDS011;37380;45.186;9.792;2023-11-18T05:43:54;3.33;;;1.70;;
51296;SDS011;37380;45.186;9.792;2023-11-18T05:46:30;2.85;;;1.60;;
51296;SDS011;37380;45.186;9.792;2023-11-18T05:49:33;8.43;;;2.15;;
51296;SDS011;37380;45.186;9.792;2023-11-18T05:52:28;2.45;;;2.25;;
51296;SDS011;37380;45.186;9.792;2023-11-18T05:54:55;2.53;;;1.77;;
51296;SDS011;37380;45.186;9.792;2023-11-18T05:57:22;2.88;;;2.10;;
51296;SDS011;37380;45.186;9.792;2023-11-18T05:59:49;9.02;;;1.98;;
51296;SDS011;37380;45.186;9.792;2023-11-18T06:02:16;4.80;;;3.78;;
51296;SDS011;37380;45.186;9.792;2023-11-18T06:04:48;2.20;;;2.05;;
51296;SDS011;37380;45.186;9.792;2023-11-18T06:07:16;7.82;;;2.03;;
51296;SDS011;37380;45.186;9.792;2023-11-18T06:09:46;3.85;;;2.28;;
51296;SDS011;37380;45.186;9.792;2023-11-18T06:12:13;10.07;;;2.42;;
51296;SDS011;37380;45.186;9.792;2023-11-18T06:14:40;6.80;;;2.03;;
51296;SDS011;37380;45.186;9.792;2023-11-18T06:17:08;2.35;;;1.88;;
51296;SDS011;37380;45.186;9.792;2023-11-18T06:19:35;6.93;;;2.72;;
51296;SDS011;37380;45.186;9.792;2023-11-18T06:22:03;3.13;;;2.33;;
51296;SDS011;37380;45.186;9.792;2023-11-18T06:24:30;7.75;;;2.78;;
51296;SDS011;37380;45.186;9.792;2023-11-18T06:26:58;7.57;;;2.47;;
51296;SDS011;37380;45.186;9.792;2023-11-18T06:29:32;4.88;;;3.05;;
51296;SDS011;37380;45.186;9.792;2023-11-18T06:32:33;5.65;;;5.15;;
51296;SDS011;37380;45.186;9.792;2023-11-18T06:35:28;6.07;;;3.15;;
51296;SDS011;37380;45.186;9.792;2023-11-18T06:37:57;15.60;;;7.57;;
51296;SDS011;37380;45.186;9.792;2023-11-18T06:40:25;14.15;;;7.30;;
51296;SDS011;37380;45.186;9.792;2023-11-18T06:43:00;5.80;;;3.22;;
51296;SDS011;37380;45.186;9.792;2023-11-18T06:46:04;6.83;;;5.20;;
51296;SDS011;37380;45.186;9.792;2023-11-18T06:49:07;19.58;;;4.57;;
51296;SDS011;37380;45.186;9.792;2023-11-18T06:52:09;5.38;;;3.30;;
51296;SDS011;37380;45.186;9.792;2023-11-18T06:55:04;15.68;;;3.33;;
51296;SDS011;37380;45.186;9.792;2023-11-18T06:57:31;3.22;;;2.85;;
51296;SDS011;37380;45.186;9.792;2023-11-18T06:59:59;13.10;;;2.50;;
51296;SDS011;37380;45.186;9.792;2023-11-18T07:02:26;3.33;;;2.38;;
51296;SDS011;37380;45.186;9.792;2023-11-18T07:04:53;15.65;;;2.85;;
51296;SDS011;37380;45.186;9.792;2023-11-18T07:07:21;3.13;;;2.30;;
51296;SDS011;37380;45.186;9.792;2023-11-18T07:09:49;4.15;;;2.38;;
51296;SDS011;37380;45.186;9.792;2023-11-18T07:12:19;3.45;;;2.67;;
51296;SDS011;37380;45.186;9.792;2023-11-18T07:14:47;3.05;;;2.85;;
51296;SDS011;37380;45.186;9.792;2023-11-18T07:17:15;10.30;;;2.58;;
51296;SDS011;37380;45.186;9.792;2023-11-18T07:19:47;3.92;;;2.00;;
51296;SDS011;37380;45.186;9.792;2023-11-18T07:22:14;4.05;;;3.33;;
51296;SDS011;37380;45.186;9.792;2023-11-18T07:24:42;3.75;;;2.72;;
51296;SDS011;37380;45.186;9.792;2023-11-18T07:27:17;4.93;;;4.35;;
51296;SDS011;37380;45.186;9.792;2023-11-18T07:30:19;4.57;;;3.00;;
51296;SDS011;37380;45.186;9.792;2023-11-18T07:33:17;2.67;;;2.22;;
51296;SDS011;37380;45.186;9.792;2023-11-18T07:36:12;6.97;;;2.47;;
51296;SDS011;37380;45.186;9.792;2023-11-18T07:39:16;3.67;;;2.97;;
51296;SDS011;37380;45.186;9.792;2023-11-18T07:42:18;4.38;;;2.35;;
51296;SDS011;37380;45.186;9.792;2023-11-18T07:45:13;4.80;;;2.83;;
51296;SDS011;37380;45.186;9.792;2023-11-18T07:48:11;2.75;;;2.45;;
51296;SDS011;37380;45.186;9.792;2023-11-18T07:51:14;8.25;;;2.92;;
51296;SDS011;37380;45.186;9.792;2023-11-18T07:54:17;3.67;;;2.53;;
51296;SDS011;37380;45.186;9.792;2023-11-18T07:57:57;12.23;;;2.17;;
51296;SDS011;37380;45.186;9.792;2023-11-18T08:01:50;3.78;;;2.72;;
51296;SDS011;37380;45.186;9.792;2023-11-18T08:04:59;12.10;;;3.33;;
51296;SDS011;37380;45.186;9.792;2023-11-18T08:08:25;19.70;;;2.72;;
51296;SDS011;37380;45.186;9.792;2023-11-18T08:15:31;3.03;;;2.78;;
51296;SDS011;37380;45.186;9.792;2023-11-18T08:24:39;3.47;;;2.38;;
51296;SDS011;37380;45.186;9.792;2023-11-18T08:28:53;10.85;;;2.83;;
51296;SDS011;37380;45.186;9.792;2023-11-18T08:31:54;6.28;;;2.00;;
51296;SDS011;37380;45.186;9.792;2023-11-18T08:34:50;3.92;;;2.72;;
51296;SDS011;37380;45.186;9.792;2023-11-18T08:37:17;22.65;;;4.30;;
51296;SDS011;37380;45.186;9.792;2023-11-18T08:39:45;4.28;;;2.75;;
51296;SDS011;37380;45.186;9.792;2023-11-18T08:42:19;4.00;;;3.60;;
51296;SDS011;37380;45.186;9.792;2023-11-18T08:45:25;12.80;;;2.78;;
51296;SDS011;37380;45.186;9.792;2023-11-18T08:48:26;7.82;;;2.72;;
51296;SDS011;37380;45.186;9.792;2023-11-18T08:51:27;9.48;;;3.75;;
51296;SDS011;37380;45.186;9.792;2023-11-18T08:54:30;6.55;;;3.70;;
51296;SDS011;37380;45.186;9.792;2023-11-18T08:57:31;4.00;;;2.63;;
51296;SDS011;37380;45.186;9.792;2023-11-18T09:00:38;10.63;;;2.88;;
51296;SDS011;37380;45.186;9.792;2023-11-18T09:03:54;3.55;;;3.03;;
51296;SDS011;37380;45.186;9.792;2023-11-18T09:06:23;5.18;;;2.72;;
51296;SDS011;37380;45.186;9.792;2023-11-18T09:08:56;5.03;;;2.85;;
51296;SDS011;37380;45.186;9.792;2023-11-18T09:11:25;8.90;;;4.25;;
51296;SDS011;37380;45.186;9.792;2023-11-18T09:13:59;5.07;;;3.15;;
51296;SDS011;37380;45.186;9.792;2023-11-18T09:16:28;4.57;;;3.33;;
51296;SDS011;37380;45.186;9.792;2023-11-18T09:19:06;4.70;;;3.17;;
51296;SDS011;37380;45.186;9.792;2023-11-18T09:22:07;4.90;;;3.30;;
51296;SDS011;37380;45.186;9.792;2023-11-18T09:24:57;10.23;;;4.50;;
51296;SDS011;37380;45.186;9.792;2023-11-18T09:27:32;4.50;;;3.90;;
51296;SDS011;37380;45.186;9.792;2023-11-18T09:30:33;8.40;;;4.07;;
51296;SDS011;37380;45.186;9.792;2023-11-18T09:33:42;4.93;;;4.25;;
51296;SDS011;37380;45.186;9.792;2023-11-18T09:36:45;5.50;;;3.80;;
51296;SDS011;37380;45.186;9.792;2023-11-18T09:39:47;5.32;;;3.60;;
51296;SDS011;37380;45.186;9.792;2023-11-18T09:42:45;5.68;;;3.55;;
51296;SDS011;37380;45.186;9.792;2023-11-18T09:45:12;9.02;;;4.05;;
51296;SDS011;37380;45.186;9.792;2023-11-18T09:48:17;5.13;;;4.50;;
51296;SDS011;37380;45.186;9.792;2023-11-18T09:51:22;7.80;;;4.55;;
51296;SDS011;37380;45.186;9.792;2023-11-18T09:57:19;5.05;;;2.95;;
51296;SDS011;37380;45.186;9.792;2023-11-18T10:00:03;3.55;;;3.15;;
51296;SDS011;37380;45.186;9.792;2023-11-18T10:05:22;6.05;;;3.85;;
51296;SDS011;37380;45.186;9.792;2023-11-18T10:07:54;4.00;;;3.53;;
51296;SDS011;37380;45.186;9.792;2023-11-18T10:10:25;5.43;;;3.92;;
51296;SDS011;37380;45.186;9.792;2023-11-18T10:13:04;4.13;;;3.70;;
51296;SDS011;37380;45.186;9.792;2023-11-18T10:15:46;7.93;;;3.78;;
51296;SDS011;37380;45.186;9.792;2023-11-18T10:18:23;13.63;;;3.60;;
51296;SDS011;37380;45.186;9.792;2023-11-18T10:21:35;5.40;;;4.13;;
51296;SDS011;37380;45.186;9.792;2023-11-18T10:24:40;5.85;;;3.78;;
51296;SDS011;37380;45.186;9.792;2023-11-18T10:27:11;5.05;;;3.58;;
51296;SDS011;37380;45.186;9.792;2023-11-18T10:29:45;5.30;;;3.45;;
51296;SDS011;37380;45.186;9.792;2023-11-18T10:32:56;5.77;;;3.97;;
51296;SDS011;37380;45.186;9.792;2023-11-18T10:35:37;3.58;;;2.63;;
51296;SDS011;37380;45.186;9.792;2023-11-18T10:38:10;3.65;;;3.35;;
51296;SDS011;37380;45.186;9.792;2023-11-18T10:41:11;9.88;;;3.55;;
51296;SDS011;37380;45.186;9.792;2023-11-18T10:44:12;5.13;;;2.72;;
51296;SDS011;37380;45.186;9.792;2023-11-18T10:47:15;8.45;;;2.83;;
51296;SDS011;37380;45.186;9.792;2023-11-18T10:50:16;4.05;;;2.80;;
51296;SDS011;37380;45.186;9.792;2023-11-18T10:53:13;11.18;;;3.20;;
51296;SDS011;37380;45.186;9.792;2023-11-18T10:55:41;4.55;;;3.30;;
51296;SDS011;37380;45.186;9.792;2023-11-18T10:58:10;3.35;;;3.05;;
51296;SDS011;37380;45.186;9.792;2023-11-18T11:00:45;3.03;;;2.53;;
51296;SDS011;37380;45.186;9.792;2023-11-18T11:03:17;3.95;;;2.58;;
51296;SDS011;37380;45.186;9.792;2023-11-18T11:05:45;3.97;;;3.13;;
51296;SDS011;37380;45.186;9.792;2023-11-18T11:08:14;3.58;;;2.80;;
51296;SDS011;37380;45.186;9.792;2023-11-18T11:10:54;3.95;;;2.83;;
51296;SDS011;37380;45.186;9.792;2023-11-18T11:13:25;14.98;;;2.85;;
51296;SDS011;37380;45.186;9.792;2023-11-18T11:15:56;5.10;;;2.88;;
51296;SDS011;37380;45.186;9.792;2023-11-18T11:18:31;6.18;;;3.00;;
51296;SDS011;37380;45.186;9.792;2023-11-18T11:21:43;3.65;;;2.75;;
51296;SDS011;37380;45.186;9.792;2023-11-18T11:25:05;2.58;;;2.35;;
51296;SDS011;37380;45.186;9.792;2023-11-18T11:28:21;7.50;;;2.72;;
51296;SDS011;37380;45.186;9.792;2023-11-18T11:34:39;2.47;;;2.28;;
51296;SDS011;37380;45.186;9.792;2023-11-18T11:37:46;2.83;;;2.50;;
51296;SDS011;37380;45.186;9.792;2023-11-18T11:40:47;2.58;;;2.22;;
51296;SDS011;37380;45.186;9.792;2023-11-18T11:43:43;3.28;;;2.65;;
51296;SDS011;37380;45.186;9.792;2023-11-18T11:46:17;2.20;;;2.00;;
51296;SDS011;37380;45.186;9.792;2023-11-18T11:49:22;9.63;;;2.50;;
51296;SDS011;37380;45.186;9.792;2023-11-18T11:52:26;4.22;;;2.60;;
51296;SDS011;37380;45.186;9.792;2023-11-18T11:55:14;5.97;;;2.40;;
51296;SDS011;37380;45.186;9.792;2023-11-18T11:57:51;7.03;;;2.87;;
51296;SDS011;37380;45.186;9.792;2023-11-18T12:00:21;3.45;;;2.55;;
51296;SDS011;37380;45.186;9.792;2023-11-18T12:02:52;6.30;;;2.90;;
51296;SDS011;37380;45.186;9.792;2023-11-18T12:05:23;3.25;;;2.55;;
51296;SDS011;37380;45.186;9.792;2023-11-18T12:07:54;2.80;;;2.20;;
51296;SDS011;37380;45.186;9.792;2023-11-18T12:10:26;3.33;;;2.28;;
51296;SDS011;37380;45.186;9.792;2023-11-18T12:13:16;8.05;;;1.85;;
51296;SDS011;37380;45.186;9.792;2023-11-18T12:18:21;5.45;;;1.70;;
51296;SDS011;37380;45.186;9.792;2023-11-18T12:20:50;2.85;;;2.08;;
51296;SDS011;37380;45.186;9.792;2023-11-18T12:23:29;2.75;;;2.17;;
51296;SDS011;37380;45.186;9.792;2023-11-18T12:26:37;1.77;;;1.67;;
51296;SDS011;37380;45.186;9.792;2023-11-18T12:29:42;2.60;;;2.38;;
51296;SDS011;37380;45.186;9.792;2023-11-18T12:39:01;6.30;;;2.60;;
51296;SDS011;37380;45.186;9.792;2023-11-18T12:42:11;3.90;;;2.55;;
51296;SDS011;37380;45.186;9.792;2023-11-18T12:51:53;4.28;;;2.85;;
51296;SDS011;37380;45.186;9.792;2023-11-18T12:55:01;3.47;;;2.60;;
51296;SDS011;37380;45.186;9.792;2023-11-18T12:57:58;7.15;;;2.65;;
51296;SDS011;37380;45.186;9.792;2023-11-18T13:00:26;8.73;;;2.28;;
51296;SDS011;37380;45.186;9.792;2023-11-18T13:02:54;2.13;;;1.92;;
51296;SDS011;37380;45.186;9.792;2023-11-18T13:05:23;3.30;;;2.53;;
51296;SDS011;37380;45.186;9.792;2023-11-18T13:07:56;3.33;;;1.90;;
51296;SDS011;37380;45.186;9.792;2023-11-18T13:10:28;2.70;;;2.30;;
51296;SDS011;37380;45.186;9.792;2023-11-18T13:12:55;3.60;;;2.47;;
51296;SDS011;37380;45.186;9.792;2023-11-18T13:15:31;3.05;;;2.20;;
51296;SDS011;37380;45.186;9.792;2023-11-18T13:18:42;4.90;;;2.20;;
51296;SDS011;37380;45.186;9.792;2023-11-18T13:21:30;11.13;;;5.85;;
51296;SDS011;37380;45.186;9.792;2023-11-18T13:24:09;2.80;;;2.47;;
51296;SDS011;37380;45.186;9.792;2023-11-18T13:27:13;2.42;;;2.15;;
51296;SDS011;37380;45.186;9.792;2023-11-18T13:33:17;2.03;;;1.83;;
51296;SDS011;37380;45.186;9.792;2023-11-18T13:36:18;5.70;;;2.10;;
51296;SDS011;37380;45.186;9.792;2023-11-18T13:39:20;2.78;;;2.15;;
51296;SDS011;37380;45.186;9.792;2023-11-18T13:45:26;10.80;;;3.08;;
51296;SDS011;37380;45.186;9.792;2023-11-18T13:48:28;4.30;;;3.53;;
51296;SDS011;37380;45.186;9.792;2023-11-18T13:51:29;4.22;;;2.97;;
51296;SDS011;37380;45.186;9.792;2023-11-18T13:54:31;10.88;;;2.90;;
51296;SDS011;37380;45.186;9.792;2023-11-18T13:57:33;4.15;;;2.97;;
51296;SDS011;37380;45.186;9.792;2023-11-18T14:00:22;3.22;;;2.92;;
51296;SDS011;37380;45.186;9.792;2023-11-18T14:03:04;6.22;;;3.38;;
51296;SDS011;37380;45.186;9.792;2023-11-18T14:06:06;2.55;;;2.10;;
51296;SDS011;37380;45.186;9.792;2023-11-18T14:11:36;4.47;;;2.88;;
51296;SDS011;37380;45.186;9.792;2023-11-18T14:14:10;6.35;;;3.28;;
51296;SDS011;37380;45.186;9.792;2023-11-18T14:17:12;3.33;;;2.58;;
51296;SDS011;37380;45.186;9.792;2023-11-18T14:20:13;3.95;;;2.63;;
51296;SDS011;37380;45.186;9.792;2023-11-18T14:23:15;4.82;;;2.97;;
51296;SDS011;37380;45.186;9.792;2023-11-18T14:26:10;5.07;;;2.67;;
51296;SDS011;37380;45.186;9.792;2023-11-18T14:28:37;15.23;;;3.20;;
51296;SDS011;37380;45.186;9.792;2023-11-18T14:31:04;4.72;;;3.00;;
51296;SDS011;37380;45.186;9.792;2023-11-18T14:33:37;7.15;;;3.25;;
51296;SDS011;37380;45.186;9.792;2023-11-18T14:36:38;3.78;;;3.30;;
51296;SDS011;37380;45.186;9.792;2023-11-18T14:39:34;6.95;;;3.17;;
51296;SDS011;37380;45.186;9.792;2023-11-18T14:42:10;7.07;;;3.90;;
51296;SDS011;37380;45.186;9.792;2023-11-18T14:45:15;10.60;;;3.47;;
51296;SDS011;37380;45.186;9.792;2023-11-18T14:48:16;3.80;;;3.38;;
51296;SDS011;37380;45.186;9.792;2023-11-18T14:51:17;3.22;;;2.90;;
51296;SDS011;37380;45.186;9.792;2023-11-18T14:54:20;4.30;;;3.20;;
51296;SDS011;37380;45.186;9.792;2023-11-18T14:57:23;8.50;;;5.43;;
51296;SDS011;37380;45.186;9.792;2023-11-18T15:00:27;4.70;;;3.90;;
51296;SDS011;37380;45.186;9.792;2023-11-18T15:03:28;5.53;;;3.75;;
51296;SDS011;37380;45.186;9.792;2023-11-18T15:06:29;6.47;;;3.53;;
51296;SDS011;37380;45.186;9.792;2023-11-18T15:09:24;6.93;;;3.50;;
51296;SDS011;37380;45.186;9.792;2023-11-18T15:11:51;5.38;;;4.28;;
51296;SDS011;37380;45.186;9.792;2023-11-18T15:14:26;3.00;;;2.50;;
51296;SDS011;37380;45.186;9.792;2023-11-18T15:17:27;14.98;;;3.92;;
51296;SDS011;37380;45.186;9.792;2023-11-18T15:20:27;4.63;;;3.25;;
51296;SDS011;37380;45.186;9.792;2023-11-18T15:22:55;17.15;;;3.35;;
51296;SDS011;37380;45.186;9.792;2023-11-18T15:25:28;3.70;;;3.05;;
51296;SDS011;37380;45.186;9.792;2023-11-18T15:28:29;4.00;;;2.70;;
51296;SDS011;37380;45.186;9.792;2023-11-18T15:31:30;3.72;;;2.40;;
51296;SDS011;37380;45.186;9.792;2023-11-18T15:34:31;8.48;;;3.17;;
51296;SDS011;37380;45.186;9.792;2023-11-18T15:37:32;7.43;;;3.20;;
51296;SDS011;37380;45.186;9.792;2023-11-18T15:40:35;8.32;;;3.35;;
51296;SDS011;37380;45.186;9.792;2023-11-18T15:43:36;3.65;;;3.13;;
51296;SDS011;37380;45.186;9.792;2023-11-18T15:46:31;6.95;;;3.40;;
51296;SDS011;37380;45.186;9.792;2023-11-18T15:49:28;5.30;;;3.05;;
51296;SDS011;37380;45.186;9.792;2023-11-18T15:52:29;7.43;;;3.55;;
51296;SDS011;37380;45.186;9.792;2023-11-18T15:55:24;4.40;;;3.65;;
51296;SDS011;37380;45.186;9.792;2023-11-18T15:57:57;13.63;;;4.82;;
51296;SDS011;37380;45.186;9.792;2023-11-18T16:00:58;8.55;;;4.07;;
51296;SDS011;37380;45.186;9.792;2023-11-18T16:03:51;11.45;;;6.55;;
51296;SDS011;37380;45.186;9.792;2023-11-18T16:06:25;5.50;;;4.47;;
51296;SDS011;37380;45.186;9.792;2023-11-18T16:09:25;4.32;;;3.83;;
51296;SDS011;37380;45.186;9.792;2023-11-18T16:12:26;6.85;;;4.43;;
51296;SDS011;37380;45.186;9.792;2023-11-18T16:15:21;9.77;;;4.95;;
51296;SDS011;37380;45.186;9.792;2023-11-18T16:17:57;9.52;;;7.30;;
51296;SDS011;37380;45.186;9.792;2023-11-18T16:21:00;34.80;;;13.93;;
51296;SDS011;37380;45.186;9.792;2023-11-18T16:24:03;17.45;;;9.35;;
51296;SDS011;37380;45.186;9.792;2023-11-18T16:26:58;28.05;;;10.98;;
51296;SDS011;37380;45.186;9.792;2023-11-18T16:29:25;11.68;;;9.88;;
51296;SDS011;37380;45.186;9.792;2023-11-18T16:31:52;9.98;;;8.52;;
51296;SDS011;37380;45.186;9.792;2023-11-18T16:34:25;25.55;;;9.38;;
51296;SDS011;37380;45.186;9.792;2023-11-18T16:37:30;28.55;;;11.93;;
51296;SDS011;37380;45.186;9.792;2023-11-18T16:40:28;24.63;;;9.80;;
51296;SDS011;37380;45.186;9.792;2023-11-18T16:43:02;23.90;;;8.95;;
51296;SDS011;37380;45.186;9.792;2023-11-18T16:46:04;18.10;;;8.10;;
51296;SDS011;37380;45.186;9.792;2023-11-18T16:49:05;26.67;;;8.75;;
51296;SDS011;37380;45.186;9.792;2023-11-18T16:52:10;14.63;;;7.78;;
51296;SDS011;37380;45.186;9.792;2023-11-18T16:55:10;29.40;;;7.60;;
51296;SDS011;37380;45.186;9.792;2023-11-18T16:58:05;17.38;;;9.05;;
51296;SDS011;37380;45.186;9.792;2023-11-18T17:00:32;18.27;;;7.53;;
51296;SDS011;37380;45.186;9.792;2023-11-18T17:02:59;10.63;;;5.97;;
51296;SDS011;37380;45.186;9.792;2023-11-18T17:05:34;10.38;;;5.75;;
51296;SDS011;37380;45.186;9.792;2023-11-18T17:08:34;13.52;;;8.73;;
51296;SDS011;37380;45.186;9.792;2023-11-18T17:11:37;14.27;;;7.28;;
51296;SDS011;37380;45.186;9.792;2023-11-18T17:14:37;19.63;;;10.02;;
51296;SDS011;37380;45.186;9.792;2023-11-18T17:17:35;29.77;;;15.50;;